Ava Foss — WDF5779 — position and weather

sailwx.info

Track history (hours):
 
Tides and Currents Weather Stations Pressure Air Temp Water Temp Dewpoint Dewpoint Depression Visibility Wind Speed Wind Dir Waves Ship Positions

Ava Foss

Owner: Foss Maritime Company, Seattle, WA. More information available from US FCC via Universal Licensing System and Coast Guard Vessel Documentation Center.

Last reported at 2015-May-06 06:16 UTC. Time now 2015-May-06 11:27 UTC.
Position N 33°51' W 118°24'.

Length 10 m; draft 2.5 m.

Type: Passenger vessel. MMSI: 367467120.

Date/timePositionNaut miles runAvg speedWind from/ knotsBaromVisibWave heightAir tempDewpointWater temp
2015-May-06 06:16N 33°51' W 118°24'0 0.0
2015-May-06 03:31N 33°51' W 118°24'2 1.9
2015-May-06 02:33N 33°52' W 118°25'2 1.8
2015-May-06 01:32N 33°51' W 118°24'5 2.5
2015-May-05 23:29N 33°55' W 118°27'2 2.0
2015-May-05 22:23N 33°55' W 118°30'1 0.5
2015-May-05 21:23N 33°54' W 118°29'6 7.4
2015-May-05 20:33N 33°51' W 118°24'0 0.0
2015-May-05 19:28N 33°51' W 118°24'2 2.2
2015-May-05 18:33N 33°52' W 118°25'2 1.8
2015-May-05 17:29N 33°51' W 118°24'5 4.4
2015-May-05 16:14N 33°54' W 118°28'1 1.2
2015-May-05 15:33N 33°55' W 118°27'5 0.6
2015-May-05 07:06N 33°51' W 118°24'5 7.3
2015-May-05 06:23N 33°55' W 118°27'5 1.0
2015-May-05 01:14N 33°51' W 118°24'0 0.1
2015-May-05 00:26N 33°51' W 118°24'0 0.0
2015-May-04 23:33N 33°51' W 118°24'5 2.4
2015-May-04 21:33N 33°54' W 118°27'5 2.2
2015-May-04 19:22N 33°51' W 118°24'4 4.5
2015-May-04 18:34N 33°53' W 118°26'3 3.3
2015-May-04 17:33N 33°51' W 118°24'0 0.4
2015-May-04 16:33N 33°51' W 118°24'0 0.0
2015-May-04 06:26N 33°51' W 118°24'0 0.0
2015-May-04 03:31N 33°51' W 118°24'5 2.3
2015-May-04 01:14N 33°55' W 118°27'5 6.8
2015-May-04 00:28N 33°51' W 118°24'0 0.1
2015-May-03 23:25N 33°51' W 118°24'0 0.2
2015-May-03 22:34N 33°50' W 118°24'5 4.5
2015-May-03 21:22N 33°54' W 118°29'2 1.8
2015-May-03 20:27N 33°52' W 118°29'2 1.6
2015-May-03 19:14N 33°54' W 118°29'6 8.9
2015-May-03 18:33N 33°51' W 118°24'2 2.0
2015-May-03 17:31N 33°52' W 118°26'4 4.0
2015-May-03 16:33N 33°54' W 118°29'3 2.9
2015-May-03 15:33N 33°52' W 118°27'3 0.2
2015-May-03 02:07N 33°51' W 118°24'0 0.0
2015-May-02 17:25N 33°51' W 118°24'0 0.0
2015-May-02 08:04N 33°51' W 118°24'5 7.8
2015-May-02 07:27N 33°54' W 118°27'5 4.0
2015-May-02 06:14N 33°51' W 118°24'0 0.0
2015-May-02 05:08N 33°51' W 118°24'0 0.2
2015-May-02 04:15N 33°51' W 118°24'0 0.2
2015-May-02 03:20N 33°51' W 118°24'0 0.0
2015-May-02 01:32N 33°51' W 118°24'0 0.0
2015-May-01 23:05N 33°51' W 118°24'0 0.0
2015-May-01 19:20N 33°51' W 118°24'0 0.0
2015-May-01 17:17N 33°51' W 118°24'1 0.3
2015-May-01 13:33N 33°51' W 118°25'4 0.8
2015-May-01 08:10N 33°54' W 118°28'1 1.5
2015-May-01 07:27N 33°54' W 118°26'3 0.4
2015-May-01 01:08N 33°52' W 118°25'2 2.6
2015-May-01 00:19N 33°53' W 118°26'4 1.9
2015-Apr-30 22:27N 33°51' W 118°24'5 2.8
2015-Apr-30 20:33N 33°55' W 118°27'5 1.6
2015-Apr-30 17:16N 33°51' W 118°24'0 0.0
2015-Apr-29 22:32N 33°51' W 118°24'0 0.0
2015-Apr-29 18:22N 33°51' W 118°24'1 0.1
2015-Apr-29 14:03N 33°50' W 118°24'1 1.6
2015-Apr-29 13:22N 33°51' W 118°25'2 0.1
2015-Apr-28 22:33N 33°51' W 118°24'0 0.0
2015-Apr-28 21:33N 33°51' W 118°24'0 0.0
2015-Apr-28 20:05N 33°51' W 118°24'0 0.0
2015-Apr-28 15:29N 33°51' W 118°24'0 0.0
2015-Apr-28 11:32N 33°51' W 118°24'0 0.0
2015-Apr-28 10:11N 33°51' W 118°24'5 2.7
2015-Apr-28 08:23N 33°54' W 118°27'0 0.1
2015-Apr-28 07:11N 33°54' W 118°27'1 2.0
2015-Apr-28 06:30N 33°53' W 118°26'3 1.6
2015-Apr-28 04:18N 33°51' W 118°24'0 0.0
2015-Apr-28 01:20N 33°51' W 118°24'0 0.1
2015-Apr-27 23:21N 33°51' W 118°24'0 0.0
2015-Apr-27 21:03N 33°51' W 118°24'5 2.6
2015-Apr-27 19:04N 33°55' W 118°27'510.4
2015-Apr-27 18:33N 33°50' W 118°24'2 1.5
2015-Apr-27 17:20N 33°52' W 118°25'2 2.0
2015-Apr-27 16:25N 33°51' W 118°24'0 0.0
2015-Apr-27 15:33N 33°51' W 118°24'3 3.3
2015-Apr-27 14:32N 33°53' W 118°26'3 0.8
2015-Apr-27 10:30N 33°51' W 118°24'0 0.0
2015-Apr-27 09:33N 33°51' W 118°24'0 0.0
2015-Apr-27 07:33N 33°51' W 118°24'0 0.0
2015-Apr-27 05:28N 33°51' W 118°24'5 0.9
2015-Apr-26 23:30N 33°55' W 118°27'5 5.3
2015-Apr-26 22:31N 33°51' W 118°24'0 0.1
2015-Apr-26 21:24N 33°51' W 118°24'1 0.7
2015-Apr-26 20:34N 33°50' W 118°24'1 0.5
2015-Apr-26 19:19N 33°51' W 118°24'2 2.9
2015-Apr-26 18:33N 33°52' W 118°26'2 2.3
2015-Apr-26 17:31N 33°51' W 118°24'0 0.0
2015-Apr-26 16:31N 33°51' W 118°24'0 0.0
2015-Apr-26 15:19N 33°51' W 118°24'  
Track history (hours):
 
Tides and Currents Weather Stations Pressure Air Temp Water Temp Dewpoint Dewpoint Depression Visibility Wind Speed Wind Dir Waves Ship Positions

Ava Foss

Owner: Foss Maritime Company, Seattle, WA. More information available from US FCC via Universal Licensing System and Coast Guard Vessel Documentation Center.

Last reported at 2015-May-06 06:16 UTC. Time now 2015-May-06 11:27 UTC.
Position N 33°51' W 118°24'.

Length 10 m; draft 2.5 m.

Type: Passenger vessel. MMSI: 367467120.

Date/timePositionNaut miles runAvg speedWind from/ knotsBaromVisibWave heightAir tempDewpointWater temp
2015-May-06 06:16N 33°51' W 118°24'0 0.0
2015-May-06 03:31N 33°51' W 118°24'2 1.9
2015-May-06 02:33N 33°52' W 118°25'2 1.8
2015-May-06 01:32N 33°51' W 118°24'5 2.5
2015-May-05 23:29N 33°55' W 118°27'2 2.0
2015-May-05 22:23N 33°55' W 118°30'1 0.5
2015-May-05 21:23N 33°54' W 118°29'6 7.4
2015-May-05 20:33N 33°51' W 118°24'0 0.0
2015-May-05 19:28N 33°51' W 118°24'2 2.2
2015-May-05 18:33N 33°52' W 118°25'2 1.8
2015-May-05 17:29N 33°51' W 118°24'5 4.4
2015-May-05 16:14N 33°54' W 118°28'1 1.2
2015-May-05 15:33N 33°55' W 118°27'5 0.6
2015-May-05 07:06N 33°51' W 118°24'5 7.3
2015-May-05 06:23N 33°55' W 118°27'5 1.0
2015-May-05 01:14N 33°51' W 118°24'0 0.1
2015-May-05 00:26N 33°51' W 118°24'0 0.0
2015-May-04 23:33N 33°51' W 118°24'5 2.4
2015-May-04 21:33N 33°54' W 118°27'5 2.2
2015-May-04 19:22N 33°51' W 118°24'4 4.5
2015-May-04 18:34N 33°53' W 118°26'3 3.3
2015-May-04 17:33N 33°51' W 118°24'0 0.4
2015-May-04 16:33N 33°51' W 118°24'0 0.0
2015-May-04 06:26N 33°51' W 118°24'0 0.0
2015-May-04 03:31N 33°51' W 118°24'5 2.3
2015-May-04 01:14N 33°55' W 118°27'5 6.8
2015-May-04 00:28N 33°51' W 118°24'0 0.1
2015-May-03 23:25N 33°51' W 118°24'0 0.2
2015-May-03 22:34N 33°50' W 118°24'5 4.5
2015-May-03 21:22N 33°54' W 118°29'2 1.8
2015-May-03 20:27N 33°52' W 118°29'2 1.6
2015-May-03 19:14N 33°54' W 118°29'6 8.9
2015-May-03 18:33N 33°51' W 118°24'2 2.0
2015-May-03 17:31N 33°52' W 118°26'4 4.0
2015-May-03 16:33N 33°54' W 118°29'3 2.9
2015-May-03 15:33N 33°52' W 118°27'3 0.2
2015-May-03 02:07N 33°51' W 118°24'0 0.0
2015-May-02 17:25N 33°51' W 118°24'0 0.0
2015-May-02 08:04N 33°51' W 118°24'5 7.8
2015-May-02 07:27N 33°54' W 118°27'5 4.0
2015-May-02 06:14N 33°51' W 118°24'0 0.0
2015-May-02 05:08N 33°51' W 118°24'0 0.2
2015-May-02 04:15N 33°51' W 118°24'0 0.2
2015-May-02 03:20N 33°51' W 118°24'0 0.0
2015-May-02 01:32N 33°51' W 118°24'0 0.0
2015-May-01 23:05N 33°51' W 118°24'0 0.0
2015-May-01 19:20N 33°51' W 118°24'0 0.0
2015-May-01 17:17N 33°51' W 118°24'1 0.3
2015-May-01 13:33N 33°51' W 118°25'4 0.8
2015-May-01 08:10N 33°54' W 118°28'1 1.5
2015-May-01 07:27N 33°54' W 118°26'3 0.4
2015-May-01 01:08N 33°52' W 118°25'2 2.6
2015-May-01 00:19N 33°53' W 118°26'4 1.9
2015-Apr-30 22:27N 33°51' W 118°24'5 2.8
2015-Apr-30 20:33N 33°55' W 118°27'5 1.6
2015-Apr-30 17:16N 33°51' W 118°24'0 0.0
2015-Apr-29 22:32N 33°51' W 118°24'0 0.0
2015-Apr-29 18:22N 33°51' W 118°24'1 0.1
2015-Apr-29 14:03N 33°50' W 118°24'1 1.6
2015-Apr-29 13:22N 33°51' W 118°25'2 0.1
2015-Apr-28 22:33N 33°51' W 118°24'0 0.0
2015-Apr-28 21:33N 33°51' W 118°24'0 0.0
2015-Apr-28 20:05N 33°51' W 118°24'0 0.0
2015-Apr-28 15:29N 33°51' W 118°24'0 0.0
2015-Apr-28 11:32N 33°51' W 118°24'0 0.0
2015-Apr-28 10:11N 33°51' W 118°24'5 2.7
2015-Apr-28 08:23N 33°54' W 118°27'0 0.1
2015-Apr-28 07:11N 33°54' W 118°27'1 2.0
2015-Apr-28 06:30N 33°53' W 118°26'3 1.6
2015-Apr-28 04:18N 33°51' W 118°24'0 0.0
2015-Apr-28 01:20N 33°51' W 118°24'0 0.1
2015-Apr-27 23:21N 33°51' W 118°24'0 0.0
2015-Apr-27 21:03N 33°51' W 118°24'5 2.6
2015-Apr-27 19:04N 33°55' W 118°27'510.4
2015-Apr-27 18:33N 33°50' W 118°24'2 1.5
2015-Apr-27 17:20N 33°52' W 118°25'2 2.0
2015-Apr-27 16:25N 33°51' W 118°24'0 0.0
2015-Apr-27 15:33N 33°51' W 118°24'3 3.3
2015-Apr-27 14:32N 33°53' W 118°26'3 0.8
2015-Apr-27 10:30N 33°51' W 118°24'0 0.0
2015-Apr-27 09:33N 33°51' W 118°24'0 0.0
2015-Apr-27 07:33N 33°51' W 118°24'0 0.0
2015-Apr-27 05:28N 33°51' W 118°24'5 0.9
2015-Apr-26 23:30N 33°55' W 118°27'5 5.3
2015-Apr-26 22:31N 33°51' W 118°24'0 0.1
2015-Apr-26 21:24N 33°51' W 118°24'1 0.7
2015-Apr-26 20:34N 33°50' W 118°24'1 0.5
2015-Apr-26 19:19N 33°51' W 118°24'2 2.9
2015-Apr-26 18:33N 33°52' W 118°26'2 2.3
2015-Apr-26 17:31N 33°51' W 118°24'0 0.0
2015-Apr-26 16:31N 33°51' W 118°24'0 0.0
2015-Apr-26 15:19N 33°51' W 118°24'  

Dump ship's entire track history